Pagrindinis puslapis
METAR-TAF:

METAR-TAF

Oro uostai :

Doha, Kataras

platuma: 25-15-40N, ilguma: 051-33-54E, Aukštis: 11 m

Dabartinis oras

Ataskaita buvo paskelbta 44 minutes, ne 03:30 UTC
Ramus vėjas
Temperatūra 37°C
Drėgmė 64%
Slėgis 999 hPa
Matomumas 10 km arba daugiau
nėra debesų žemiau 1500 m ir nėra kamuolinių lietaus debesų

METAR: OTBD 010330Z 00000KT CAVOK 37/29 Q0999 NOSIG

Laikas: 07:14 (04:14 UTC)

Prognozė

Ataskaita buvo paskelbta 5 valandos ir 9 minutes, ne 23:05 UTC
Prognozė galioja nuo 01 metu 00 UTC su 02 metu 06 UTC
Vėjas 5 kt iš Pietų/Pietryčių
Matomumas 10 km arba daugiau
nėra debesų žemiau 1500 m ir nėra kamuolinių lietaus debesų
Tikimybė 30% :
Laikinai
nuo 01 metu 00 UTC su 01 metu 04 UTC
Matomumas: 5000 m
migla
Tapsmas
nuo 01 metu 09 UTC su 01 metu 11 UTC
Vėjas 10 kt iš Rytų

TAF: OTBD 312305Z 0100/0206 15005KT CAVOK PROB30 TEMPO 0100/0104 5000 HZ BECMG 0109/0111 09010KT

Orai ataskaitas ir orų prognozės (METAR, TAF).

turimą stotys yra geltonos ir raudonos taškus žemėlapyje.

Perkelti pele per norėdami pamatyti stoties vardą.

Tada spustelėkite, norėdami matyti oro stebėjimo ir prognozės.

Norėdami pakeisti žemėlapį: spustelėkite ant žalios mygtukų su juodo kryžiaus žemyn,; žalią mygtuką su brūkšneliu, jei norite nutolinti; arba žalių rodyklių gretimoms žemėlapius.


METAR-TAF: